Aérodrome :
LOGIN :

S'inscrire | Disclaimer

   EN    FR    IT 

 










Légende :    VFR   VFR Marginal   IFR   IFR Intensif   IFR Très Intensif
Visi : 
Plafond : 
>= 8 km
>= 3000ft
5 à 8 km
1000 à 3000 ft
1500m à 5 km
500 à 1000 ft
800 à 1500m
200 à 500 ft
< 800m
< 200 ft
Symboles :   Orages  Brouillard  Fortes neiges  Fortes précipitations  Vent > 20 kt
SIGMETs :   Divers  Orages  Givrage  Turbulence  Onde Orograph.  Cendres Volcan.






- Altitude de l'aérodrome : 55 ft
- Code IATA : PYR


LGAD - Andravida

DERNIER METAR :
  • 270620Z 00000KT CAVOK 21/15 Q1018

METARs EXPIRÉS :
  • 270550Z 00000KT CAVOK 19/14 Q1017
  • 270520Z 00000KT CAVOK 16/13 Q1017
  • 270450Z 00000KT CAVOK 15/12 Q1017
  • 270420Z 00000KT CAVOK 15/12 Q1017
  • 270350Z 00000KT CAVOK 15/12 Q1017

TAF TAF LGAD
Valide du 27 à 06h jusqu'au 27 à 15h UTC


270500Z 2706/2715 VRB03KT 9999 FEW025
BECMG 2710/2712 31010KT



MET'MAP, la Météo Aéronautique d'un coup d'oeil ! - Copyright ORBIFLY Décembre 2007 - Disclaimer

ORBIFLY MET'MAP TEAM :

Programmation & Développement : Alexandra Zaïnal
Sur une idée originale de : Baudouin d'Aumeries
Assistance à la programmation : Marc-Olivier Méhu
Soutien technique & logistique : Manuel Goepfert

Contact : metmap@orbifly.com




SOURCES & CREDITS :

   NOAA